sensor_id;sensor_type;location;lat;lon;timestamp;pressure;altitude;pressure_sealevel;temperature;humidity
64336;BME280;50672;53.362;-6.240;2022-08-23T00:06:35;100884.25;;;20.65;65.08
64336;BME280;50672;53.362;-6.240;2022-08-23T00:10:02;100886.94;;;20.60;65.41
64336;BME280;50672;53.362;-6.240;2022-08-23T00:16:59;100892.47;;;20.60;66.31
64336;BME280;50672;53.362;-6.240;2022-08-23T00:19:27;100889.78;;;20.65;66.42
64336;BME280;50672;53.362;-6.240;2022-08-23T00:21:54;100888.13;;;20.64;66.58
64336;BME280;50672;53.362;-6.240;2022-08-23T00:24:23;100893.03;;;20.62;66.49
64336;BME280;50672;53.362;-6.240;2022-08-23T00:27:14;100893.53;;;20.59;66.41
64336;BME280;50672;53.362;-6.240;2022-08-23T00:29:44;100885.47;;;20.57;66.59
64336;BME280;50672;53.362;-6.240;2022-08-23T00:32:15;100888.47;;;20.56;66.69
64336;BME280;50672;53.362;-6.240;2022-08-23T00:34:43;100884.25;;;20.53;67.12
64336;BME280;50672;53.362;-6.240;2022-08-23T00:37:10;100887.75;;;20.48;67.01
64336;BME280;50672;53.362;-6.240;2022-08-23T00:39:38;100893.50;;;20.47;67.38
64336;BME280;50672;53.362;-6.240;2022-08-23T00:48:52;100897.47;;;20.39;67.84
64336;BME280;50672;53.362;-6.240;2022-08-23T00:51:33;100888.34;;;20.39;68.17
64336;BME280;50672;53.362;-6.240;2022-08-23T00:54:19;100884.13;;;20.36;68.42
64336;BME280;50672;53.362;-6.240;2022-08-23T00:56:46;100885.69;;;20.32;68.43
64336;BME280;50672;53.362;-6.240;2022-08-23T00:59:14;100880.41;;;20.30;68.55
64336;BME280;50672;53.362;-6.240;2022-08-23T01:01:41;100878.69;;;20.29;68.81
64336;BME280;50672;53.362;-6.240;2022-08-23T01:04:11;100882.53;;;20.28;68.69
64336;BME280;50672;53.362;-6.240;2022-08-23T01:06:45;100881.09;;;20.26;69.04
64336;BME280;50672;53.362;-6.240;2022-08-23T01:09:18;100872.09;;;20.30;68.59
64336;BME280;50672;53.362;-6.240;2022-08-23T01:12:07;100877.88;;;20.29;69.00
64336;BME280;50672;53.362;-6.240;2022-08-23T01:14:40;100874.72;;;20.25;68.82
64336;BME280;50672;53.362;-6.240;2022-08-23T01:17:11;100870.50;;;20.23;69.06
64336;BME280;50672;53.362;-6.240;2022-08-23T01:19:50;100873.13;;;20.18;69.08
64336;BME280;50672;53.362;-6.240;2022-08-23T01:25:17;100867.09;;;20.09;69.23
64336;BME280;50672;53.362;-6.240;2022-08-23T01:27:45;100870.59;;;20.04;69.23
64336;BME280;50672;53.362;-6.240;2022-08-23T01:30:15;100863.03;;;20.00;69.67
64336;BME280;50672;53.362;-6.240;2022-08-23T01:32:47;100867.09;;;19.97;69.67
64336;BME280;50672;53.362;-6.240;2022-08-23T01:35:16;100865.25;;;19.91;69.81
64336;BME280;50672;53.362;-6.240;2022-08-23T01:37:44;100868.50;;;19.88;69.69
64336;BME280;50672;53.362;-6.240;2022-08-23T01:40:11;100859.81;;;19.84;70.00
64336;BME280;50672;53.362;-6.240;2022-08-23T01:42:38;100856.69;;;19.80;70.05
64336;BME280;50672;53.362;-6.240;2022-08-23T01:45:11;100858.44;;;19.75;70.06
64336;BME280;50672;53.362;-6.240;2022-08-23T01:47:39;100872.81;;;19.65;70.22
64336;BME280;50672;53.362;-6.240;2022-08-23T01:50:08;100868.84;;;19.61;70.46
64336;BME280;50672;53.362;-6.240;2022-08-23T01:52:37;100870.59;;;19.55;70.59
64336;BME280;50672;53.362;-6.240;2022-08-23T01:55:12;100870.84;;;19.54;70.54
64336;BME280;50672;53.362;-6.240;2022-08-23T01:57:40;100880.44;;;19.51;70.99
64336;BME280;50672;53.362;-6.240;2022-08-23T02:00:11;100883.44;;;19.50;71.01
64336;BME280;50672;53.362;-6.240;2022-08-23T02:02:39;100881.97;;;19.47;70.83
64336;BME280;50672;53.362;-6.240;2022-08-23T02:05:08;100884.34;;;19.43;71.28
64336;BME280;50672;53.362;-6.240;2022-08-23T02:07:35;100889.25;;;19.41;71.17
64336;BME280;50672;53.362;-6.240;2022-08-23T02:10:05;100889.72;;;19.38;71.26
64336;BME280;50672;53.362;-6.240;2022-08-23T02:12:32;100877.47;;;19.34;71.12
64336;BME280;50672;53.362;-6.240;2022-08-23T02:15:00;100869.63;;;19.31;71.24
64336;BME280;50672;53.362;-6.240;2022-08-23T02:17:26;100876.84;;;19.32;71.15
64336;BME280;50672;53.362;-6.240;2022-08-23T02:19:53;100884.88;;;19.34;70.86
64336;BME280;50672;53.362;-6.240;2022-08-23T02:22:21;100885.03;;;19.39;70.73
64336;BME280;50672;53.362;-6.240;2022-08-23T02:24:48;100898.13;;;19.43;70.51
64336;BME280;50672;53.362;-6.240;2022-08-23T02:27:16;100898.75;;;19.45;70.30
64336;BME280;50672;53.362;-6.240;2022-08-23T02:29:44;100902.34;;;19.46;70.39
64336;BME280;50672;53.362;-6.240;2022-08-23T02:32:14;100900.44;;;19.46;70.42
64336;BME280;50672;53.362;-6.240;2022-08-23T02:34:43;100894.91;;;19.46;70.19
64336;BME280;50672;53.362;-6.240;2022-08-23T02:37:25;100892.16;;;19.46;70.26
64336;BME280;50672;53.362;-6.240;2022-08-23T02:39:52;100884.09;;;19.45;70.13
64336;BME280;50672;53.362;-6.240;2022-08-23T02:42:18;100877.16;;;19.42;70.13
64336;BME280;50672;53.362;-6.240;2022-08-23T02:44:45;100871.22;;;19.39;70.43
64336;BME280;50672;53.362;-6.240;2022-08-23T02:47:12;100873.00;;;19.33;70.22
64336;BME280;50672;53.362;-6.240;2022-08-23T02:49:39;100872.25;;;19.26;70.59
64336;BME280;50672;53.362;-6.240;2022-08-23T02:52:06;100878.66;;;19.20;70.56
64336;BME280;50672;53.362;-6.240;2022-08-23T02:54:34;100879.38;;;19.15;70.99
64336;BME280;50672;53.362;-6.240;2022-08-23T02:57:02;100884.50;;;19.11;71.21
64336;BME280;50672;53.362;-6.240;2022-08-23T02:59:29;100883.72;;;19.04;70.86
64336;BME280;50672;53.362;-6.240;2022-08-23T03:01:55;100886.34;;;18.99;71.26
64336;BME280;50672;53.362;-6.240;2022-08-23T03:04:22;100876.84;;;18.95;71.07
64336;BME280;50672;53.362;-6.240;2022-08-23T03:06:49;100875.59;;;18.91;71.54
64336;BME280;50672;53.362;-6.240;2022-08-23T03:09:16;100879.84;;;18.87;71.48
64336;BME280;50672;53.362;-6.240;2022-08-23T03:11:47;100885.19;;;18.82;71.56
64336;BME280;50672;53.362;-6.240;2022-08-23T03:14:15;100879.06;;;18.79;71.65
64336;BME280;50672;53.362;-6.240;2022-08-23T03:16:42;100884.44;;;18.74;72.13
64336;BME280;50672;53.362;-6.240;2022-08-23T03:19:10;100883.78;;;18.72;72.05
64336;BME280;50672;53.362;-6.240;2022-08-23T03:21:37;100886.41;;;18.67;72.16
64336;BME280;50672;53.362;-6.240;2022-08-23T03:24:04;100897.88;;;18.64;72.31
64336;BME280;50672;53.362;-6.240;2022-08-23T03:26:36;100889.22;;;18.60;72.72
64336;BME280;50672;53.362;-6.240;2022-08-23T03:29:03;100886.06;;;18.57;72.40
64336;BME280;50672;53.362;-6.240;2022-08-23T03:31:30;100894.78;;;18.54;72.87
64336;BME280;50672;53.362;-6.240;2022-08-23T03:33:57;100884.81;;;18.53;73.05
64336;BME280;50672;53.362;-6.240;2022-08-23T03:36:24;100890.78;;;18.50;72.87
64336;BME280;50672;53.362;-6.240;2022-08-23T03:38:53;100892.47;;;18.51;73.11
64336;BME280;50672;53.362;-6.240;2022-08-23T03:41:21;100886.97;;;18.51;73.40
64336;BME280;50672;53.362;-6.240;2022-08-23T03:43:47;100881.47;;;18.51;73.08
64336;BME280;50672;53.362;-6.240;2022-08-23T03:46:14;100884.81;;;18.53;73.10
64336;BME280;50672;53.362;-6.240;2022-08-23T03:48:55;100883.75;;;18.54;73.23
64336;BME280;50672;53.362;-6.240;2022-08-23T03:51:23;100880.16;;;18.53;73.34
64336;BME280;50672;53.362;-6.240;2022-08-23T03:53:50;100889.09;;;18.49;73.57
64336;BME280;50672;53.362;-6.240;2022-08-23T03:56:24;100886.19;;;18.43;73.36
64336;BME280;50672;53.362;-6.240;2022-08-23T03:58:53;100880.03;;;18.41;73.33
64336;BME280;50672;53.362;-6.240;2022-08-23T04:01:20;100874.16;;;18.38;73.54
64336;BME280;50672;53.362;-6.240;2022-08-23T04:03:54;100872.69;;;18.35;73.64
64336;BME280;50672;53.362;-6.240;2022-08-23T04:06:20;100880.09;;;18.35;73.56
64336;BME280;50672;53.362;-6.240;2022-08-23T04:08:47;100885.22;;;18.31;74.04
64336;BME280;50672;53.362;-6.240;2022-08-23T04:11:14;100890.09;;;18.29;73.92
64336;BME280;50672;53.362;-6.240;2022-08-23T04:13:41;100884.59;;;18.29;73.92
64336;BME280;50672;53.362;-6.240;2022-08-23T04:16:09;100895.38;;;18.31;73.93
64336;BME280;50672;53.362;-6.240;2022-08-23T04:18:36;100893.88;;;18.35;73.84
64336;BME280;50672;53.362;-6.240;2022-08-23T04:21:06;100895.06;;;18.45;74.13
64336;BME280;50672;53.362;-6.240;2022-08-23T04:23:36;100904.75;;;18.55;73.87
64336;BME280;50672;53.362;-6.240;2022-08-23T04:26:05;100903.00;;;18.60;73.72
64336;BME280;50672;53.362;-6.240;2022-08-23T04:28:35;100907.59;;;18.67;73.83
64336;BME280;50672;53.362;-6.240;2022-08-23T04:31:03;100900.34;;;18.72;73.61
64336;BME280;50672;53.362;-6.240;2022-08-23T04:33:31;100900.75;;;18.76;73.79
64336;BME280;50672;53.362;-6.240;2022-08-23T04:36:00;100895.84;;;18.78;73.34
64336;BME280;50672;53.362;-6.240;2022-08-23T04:38:27;100897.16;;;18.75;73.33
64336;BME280;50672;53.362;-6.240;2022-08-23T04:40:54;100894.22;;;18.70;73.10
64336;BME280;50672;53.362;-6.240;2022-08-23T04:43:40;100890.47;;;18.65;73.10
64336;BME280;50672;53.362;-6.240;2022-08-23T04:46:10;100888.34;;;18.60;73.41
64336;BME280;50672;53.362;-6.240;2022-08-23T04:48:44;100894.56;;;18.55;73.38
64336;BME280;50672;53.362;-6.240;2022-08-23T04:51:11;100901.34;;;18.53;73.07
64336;BME280;50672;53.362;-6.240;2022-08-23T04:53:39;100901.59;;;18.51;73.43
64336;BME280;50672;53.362;-6.240;2022-08-23T04:56:06;100904.34;;;18.51;73.24
64336;BME280;50672;53.362;-6.240;2022-08-23T04:58:36;100907.31;;;18.50;73.68
64336;BME280;50672;53.362;-6.240;2022-08-23T05:01:05;100907.56;;;18.48;73.58
64336;BME280;50672;53.362;-6.240;2022-08-23T05:03:36;100909.72;;;18.46;73.62
64336;BME280;50672;53.362;-6.240;2022-08-23T05:06:03;100908.25;;;18.43;73.55
64336;BME280;50672;53.362;-6.240;2022-08-23T05:08:30;100914.81;;;18.42;73.53
64336;BME280;50672;53.362;-6.240;2022-08-23T05:11:02;100915.88;;;18.41;73.53
64336;BME280;50672;53.362;-6.240;2022-08-23T05:13:30;100917.16;;;18.39;73.33
64336;BME280;50672;53.362;-6.240;2022-08-23T05:16:00;100919.09;;;18.38;73.54
64336;BME280;50672;53.362;-6.240;2022-08-23T05:18:27;100921.84;;;18.38;73.25
64336;BME280;50672;53.362;-6.240;2022-08-23T05:20:55;100916.31;;;18.38;73.20
64336;BME280;50672;53.362;-6.240;2022-08-23T05:23:22;100925.44;;;18.39;73.08
64336;BME280;50672;53.362;-6.240;2022-08-23T05:25:58;100929.28;;;18.38;73.33
64336;BME280;50672;53.362;-6.240;2022-08-23T05:28:31;100931.63;;;18.34;73.04
64336;BME280;50672;53.362;-6.240;2022-08-23T05:31:06;100935.66;;;18.32;73.24
64336;BME280;50672;53.362;-6.240;2022-08-23T05:33:38;100940.78;;;18.28;72.92
64336;BME280;50672;53.362;-6.240;2022-08-23T05:36:06;100940.16;;;18.26;72.82
64336;BME280;50672;53.362;-6.240;2022-08-23T05:38:35;100942.91;;;18.26;72.96
64336;BME280;50672;53.362;-6.240;2022-08-23T05:41:02;100954.13;;;18.31;72.91
64336;BME280;50672;53.362;-6.240;2022-08-23T05:43:32;100949.84;;;18.35;73.11
64336;BME280;50672;53.362;-6.240;2022-08-23T05:46:12;100941.13;;;18.38;72.70
64336;BME280;50672;53.362;-6.240;2022-08-23T05:48:46;100946.41;;;18.40;72.83
64336;BME280;50672;53.362;-6.240;2022-08-23T05:51:20;100957.22;;;18.41;72.59
64336;BME280;50672;53.362;-6.240;2022-08-23T05:53:49;100960.59;;;18.43;72.59
64336;BME280;50672;53.362;-6.240;2022-08-23T05:56:23;100963.13;;;18.45;72.62
64336;BME280;50672;53.362;-6.240;2022-08-23T05:58:53;100961.22;;;18.45;72.24
64336;BME280;50672;53.362;-6.240;2022-08-23T06:01:26;100961.84;;;18.48;71.98
64336;BME280;50672;53.362;-6.240;2022-08-23T06:03:53;100966.28;;;18.49;72.21
64336;BME280;50672;53.362;-6.240;2022-08-23T06:06:20;100975.19;;;18.51;71.81
64336;BME280;50672;53.362;-6.240;2022-08-23T06:09:01;100975.56;;;18.54;71.78
64336;BME280;50672;53.362;-6.240;2022-08-23T06:11:28;100979.19;;;18.55;71.88
64336;BME280;50672;53.362;-6.240;2022-08-23T06:14:00;100971.06;;;18.60;71.91
64336;BME280;50672;53.362;-6.240;2022-08-23T06:16:32;100977.81;;;18.64;71.44
64336;BME280;50672;53.362;-6.240;2022-08-23T06:19:00;100980.38;;;18.66;71.63
64336;BME280;50672;53.362;-6.240;2022-08-23T06:21:31;100975.25;;;18.69;71.26
64336;BME280;50672;53.362;-6.240;2022-08-23T06:23:58;100983.06;;;18.72;71.25
64336;BME280;50672;53.362;-6.240;2022-08-23T06:26:28;100988.81;;;18.71;71.27
64336;BME280;50672;53.362;-6.240;2022-08-23T06:28:59;100988.81;;;18.71;70.87
64336;BME280;50672;53.362;-6.240;2022-08-23T06:31:28;100986.69;;;18.73;70.89
64336;BME280;50672;53.362;-6.240;2022-08-23T06:34:32;100995.19;;;18.71;71.00
64336;BME280;50672;53.362;-6.240;2022-08-23T06:37:11;100997.94;;;18.71;70.74
64336;BME280;50672;53.362;-6.240;2022-08-23T06:39:40;100994.72;;;18.74;70.86
64336;BME280;50672;53.362;-6.240;2022-08-23T06:42:13;101001.09;;;18.75;70.92
64336;BME280;50672;53.362;-6.240;2022-08-23T06:45:01;101003.00;;;18.74;70.78
64336;BME280;50672;53.362;-6.240;2022-08-23T06:47:28;100997.88;;;18.78;70.70
64336;BME280;50672;53.362;-6.240;2022-08-23T06:49:57;100999.34;;;18.81;70.71
64336;BME280;50672;53.362;-6.240;2022-08-23T06:52:25;101007.16;;;18.84;70.22
64336;BME280;50672;53.362;-6.240;2022-08-23T06:54:53;101007.38;;;18.89;70.32
64336;BME280;50672;53.362;-6.240;2022-08-23T06:57:20;101012.00;;;18.95;70.17
64336;BME280;50672;53.362;-6.240;2022-08-23T06:59:48;101004.28;;;19.04;69.88
64336;BME280;50672;53.362;-6.240;2022-08-23T07:02:15;101004.59;;;19.14;69.63
64336;BME280;50672;53.362;-6.240;2022-08-23T07:04:42;101003.94;;;19.19;69.72
64336;BME280;50672;53.362;-6.240;2022-08-23T07:07:09;101011.31;;;19.25;69.27
64336;BME280;50672;53.362;-6.240;2022-08-23T07:09:38;101002.78;;;19.26;69.26
64336;BME280;50672;53.362;-6.240;2022-08-23T07:12:07;101004.84;;;19.31;68.98
64336;BME280;50672;53.362;-6.240;2022-08-23T07:14:35;101007.41;;;19.33;68.92
64336;BME280;50672;53.362;-6.240;2022-08-23T07:17:02;101015.28;;;19.29;68.85
64336;BME280;50672;53.362;-6.240;2022-08-23T07:19:33;101014.06;;;19.25;68.53
64336;BME280;50672;53.362;-6.240;2022-08-23T07:22:01;101016.41;;;19.21;68.74
64336;BME280;50672;53.362;-6.240;2022-08-23T07:24:29;101019.19;;;19.21;68.50
64336;BME280;50672;53.362;-6.240;2022-08-23T07:27:00;101021.50;;;19.24;68.08
64336;BME280;50672;53.362;-6.240;2022-08-23T07:29:31;101020.88;;;19.22;68.02
64336;BME280;50672;53.362;-6.240;2022-08-23T07:31:58;101026.34;;;19.29;68.30
64336;BME280;50672;53.362;-6.240;2022-08-23T07:34:25;101034.78;;;19.34;68.04
64336;BME280;50672;53.362;-6.240;2022-08-23T07:36:52;101043.84;;;19.41;67.67
64336;BME280;50672;53.362;-6.240;2022-08-23T07:39:21;101040.16;;;19.47;67.73
64336;BME280;50672;53.362;-6.240;2022-08-23T07:41:49;101041.41;;;19.52;67.63
64336;BME280;50672;53.362;-6.240;2022-08-23T07:44:18;101035.81;;;19.58;67.50
64336;BME280;50672;53.362;-6.240;2022-08-23T07:46:49;101042.16;;;19.59;67.10
64336;BME280;50672;53.362;-6.240;2022-08-23T07:49:16;101043.94;;;19.53;67.02
64336;BME280;50672;53.362;-6.240;2022-08-23T07:51:48;101045.84;;;19.53;67.15
64336;BME280;50672;53.362;-6.240;2022-08-23T07:54:16;101049.75;;;19.45;67.18
64336;BME280;50672;53.362;-6.240;2022-08-23T07:56:44;101042.78;;;19.42;67.31
64336;BME280;50672;53.362;-6.240;2022-08-23T07:59:11;101054.88;;;19.41;67.06
64336;BME280;50672;53.362;-6.240;2022-08-23T08:01:41;101048.69;;;19.46;66.93
64336;BME280;50672;53.362;-6.240;2022-08-23T08:04:09;101054.19;;;19.46;66.95
64336;BME280;50672;53.362;-6.240;2022-08-23T08:06:46;101062.25;;;19.47;67.05
64336;BME280;50672;53.362;-6.240;2022-08-23T08:09:34;101067.31;;;19.51;66.85
64336;BME280;50672;53.362;-6.240;2022-08-23T08:12:01;101069.00;;;19.52;67.13
64336;BME280;50672;53.362;-6.240;2022-08-23T08:14:27;101072.41;;;19.54;66.97
64336;BME280;50672;53.362;-6.240;2022-08-23T08:16:54;101066.59;;;19.62;67.16
64336;BME280;50672;53.362;-6.240;2022-08-23T08:19:24;101065.81;;;19.73;66.65
64336;BME280;50672;53.362;-6.240;2022-08-23T08:21:51;101064.97;;;19.73;66.80
64336;BME280;50672;53.362;-6.240;2022-08-23T08:24:17;101086.53;;;19.64;66.99
64336;BME280;50672;53.362;-6.240;2022-08-23T08:26:45;101089.19;;;19.52;66.87
64336;BME280;50672;53.362;-6.240;2022-08-23T08:29:12;101082.88;;;19.45;67.10
64336;BME280;50672;53.362;-6.240;2022-08-23T08:31:42;101090.56;;;19.43;66.75
64336;BME280;50672;53.362;-6.240;2022-08-23T08:34:09;101083.16;;;19.37;67.13
64336;BME280;50672;53.362;-6.240;2022-08-23T08:36:38;101087.06;;;19.29;66.68
64336;BME280;50672;53.362;-6.240;2022-08-23T08:39:11;101089.91;;;19.41;66.94
64336;BME280;50672;53.362;-6.240;2022-08-23T08:44:42;101093.81;;;19.77;66.27
64336;BME280;50672;53.362;-6.240;2022-08-23T08:47:14;101092.44;;;19.93;66.41
64336;BME280;50672;53.362;-6.240;2022-08-23T08:52:32;101087.81;;;20.05;65.57
64336;BME280;50672;53.362;-6.240;2022-08-23T08:55:15;101090.66;;;19.98;65.60
64336;BME280;50672;53.362;-6.240;2022-08-23T08:57:45;101087.13;;;19.91;65.73
64336;BME280;50672;53.362;-6.240;2022-08-23T09:00:25;101088.13;;;19.97;65.16
64336;BME280;50672;53.362;-6.240;2022-08-23T09:02:53;101095.88;;;20.07;65.26
64336;BME280;50672;53.362;-6.240;2022-08-23T09:05:33;101091.47;;;20.18;64.80
64336;BME280;50672;53.362;-6.240;2022-08-23T09:16:11;101101.09;;;20.94;63.15
64336;BME280;50672;53.362;-6.240;2022-08-23T09:18:44;101095.84;;;21.05;62.69
64336;BME280;50672;53.362;-6.240;2022-08-23T09:21:13;101091.63;;;21.14;62.15
64336;BME280;50672;53.362;-6.240;2022-08-23T09:23:43;101104.31;;;21.22;61.91
64336;BME280;50672;53.362;-6.240;2022-08-23T09:26:29;101090.47;;;21.22;61.57
64336;BME280;50672;53.362;-6.240;2022-08-23T09:29:03;101098.53;;;21.23;61.16
64336;BME280;50672;53.362;-6.240;2022-08-23T09:31:54;101103.97;;;21.30;60.77
64336;BME280;50672;53.362;-6.240;2022-08-23T09:39:44;101101.09;;;21.48;59.30
64336;BME280;50672;53.362;-6.240;2022-08-23T09:42:34;101101.59;;;21.81;58.30
64336;BME280;50672;53.362;-6.240;2022-08-23T09:45:30;101108.53;;;22.07;57.75
64336;BME280;50672;53.362;-6.240;2022-08-23T09:48:02;101098.06;;;22.09;57.05
64336;BME280;50672;53.362;-6.240;2022-08-23T09:50:37;101098.78;;;22.16;56.62
64336;BME280;50672;53.362;-6.240;2022-08-23T09:53:08;101100.50;;;21.94;56.57
64336;BME280;50672;53.362;-6.240;2022-08-23T09:55:39;101098.22;;;21.79;56.31
64336;BME280;50672;53.362;-6.240;2022-08-23T09:58:30;101089.81;;;21.62;55.82
64336;BME280;50672;53.362;-6.240;2022-08-23T10:03:44;101104.59;;;21.56;55.75
64336;BME280;50672;53.362;-6.240;2022-08-23T10:06:28;101100.25;;;21.48;55.38
64336;BME280;50672;53.362;-6.240;2022-08-23T10:08:56;101106.66;;;21.60;55.31
64336;BME280;50672;53.362;-6.240;2022-08-23T10:11:40;101099.78;;;21.87;55.09
64336;BME280;50672;53.362;-6.240;2022-08-23T10:14:15;101101.91;;;22.08;54.70
64336;BME280;50672;53.362;-6.240;2022-08-23T10:22:27;101093.56;;;23.18;53.12
64336;BME280;50672;53.362;-6.240;2022-08-23T10:25:08;101092.97;;;23.33;52.66
64336;BME280;50672;53.362;-6.240;2022-08-23T10:31:13;101097.22;;;23.92;51.20
64336;BME280;50672;53.362;-6.240;2022-08-23T10:36:47;101089.13;;;23.91;50.47
64336;BME280;50672;53.362;-6.240;2022-08-23T10:39:27;101091.06;;;23.90;49.95
64336;BME280;50672;53.362;-6.240;2022-08-23T10:42:04;101095.84;;;23.78;49.87
64336;BME280;50672;53.362;-6.240;2022-08-23T10:44:44;101093.59;;;23.75;49.63
64336;BME280;50672;53.362;-6.240;2022-08-23T10:50:14;101095.38;;;24.20;48.73
64336;BME280;50672;53.362;-6.240;2022-08-23T10:53:08;101099.97;;;24.58;48.50
64336;BME280;50672;53.362;-6.240;2022-08-23T10:55:41;101086.66;;;24.83;48.04
64336;BME280;50672;53.362;-6.240;2022-08-23T10:58:23;101099.91;;;25.03;48.02
64336;BME280;50672;53.362;-6.240;2022-08-23T11:00:56;101104.31;;;25.31;47.78
64336;BME280;50672;53.362;-6.240;2022-08-23T11:06:28;101092.22;;;25.15;47.51
64336;BME280;50672;53.362;-6.240;2022-08-23T11:12:10;101096.56;;;24.73;47.27
64336;BME280;50672;53.362;-6.240;2022-08-23T11:14:45;101104.97;;;24.56;47.68
64336;BME280;50672;53.362;-6.240;2022-08-23T11:17:26;101099.09;;;25.07;47.38
64336;BME280;50672;53.362;-6.240;2022-08-23T11:19:55;101105.13;;;25.27;47.21
64336;BME280;50672;53.362;-6.240;2022-08-23T11:22:31;101108.41;;;25.18;46.68
64336;BME280;50672;53.362;-6.240;2022-08-23T11:25:04;101099.91;;;25.03;46.66
64336;BME280;50672;53.362;-6.240;2022-08-23T11:27:35;101110.19;;;24.70;46.75
64336;BME280;50672;53.362;-6.240;2022-08-23T11:30:45;101106.00;;;25.00;46.50
64336;BME280;50672;53.362;-6.240;2022-08-23T11:33:25;101105.06;;;25.91;46.13
64336;BME280;50672;53.362;-6.240;2022-08-23T11:36:13;101103.78;;;26.73;45.21
64336;BME280;50672;53.362;-6.240;2022-08-23T11:46:56;101083.25;;;28.27;42.03
64336;BME280;50672;53.362;-6.240;2022-08-23T11:55:01;101076.66;;;28.62;40.71
64336;BME280;50672;53.362;-6.240;2022-08-23T12:00:20;101083.28;;;29.17;39.37
64336;BME280;50672;53.362;-6.240;2022-08-23T12:03:04;101082.28;;;29.37;39.03
64336;BME280;50672;53.362;-6.240;2022-08-23T12:06:03;101088.59;;;29.77;38.51
64336;BME280;50672;53.362;-6.240;2022-08-23T12:08:35;101078.06;;;30.17;37.88
64336;BME280;50672;53.362;-6.240;2022-08-23T12:11:11;101077.72;;;29.99;37.17
64336;BME280;50672;53.362;-6.240;2022-08-23T12:21:21;101069.59;;;29.44;36.92
64336;BME280;50672;53.362;-6.240;2022-08-23T12:23:52;101079.19;;;29.62;36.35
64336;BME280;50672;53.362;-6.240;2022-08-23T12:26:33;101085.06;;;30.39;36.03
64336;BME280;50672;53.362;-6.240;2022-08-23T12:29:11;101076.88;;;31.18;35.50
64336;BME280;50672;53.362;-6.240;2022-08-23T12:32:08;101080.44;;;31.57;35.18
64336;BME280;50672;53.362;-6.240;2022-08-23T12:39:59;101082.22;;;33.78;32.95
64336;BME280;50672;53.362;-6.240;2022-08-23T12:42:34;101083.09;;;33.87;31.91
64336;BME280;50672;53.362;-6.240;2022-08-23T12:45:15;101088.78;;;33.96;31.53
64336;BME280;50672;53.362;-6.240;2022-08-23T12:47:54;101091.22;;;32.89;31.43
64336;BME280;50672;53.362;-6.240;2022-08-23T12:50:31;101081.63;;;32.40;31.35
64336;BME280;50672;53.362;-6.240;2022-08-23T12:53:32;101096.78;;;32.30;31.00
64336;BME280;50672;53.362;-6.240;2022-08-23T12:56:06;101085.72;;;32.33;30.92
64336;BME280;50672;53.362;-6.240;2022-08-23T12:58:36;101080.19;;;32.79;30.54
64336;BME280;50672;53.362;-6.240;2022-08-23T13:01:07;101077.00;;;32.71;30.12
64336;BME280;50672;53.362;-6.240;2022-08-23T13:03:46;101076.34;;;32.75;29.90
64336;BME280;50672;53.362;-6.240;2022-08-23T13:06:21;101079.00;;;32.71;29.78
64336;BME280;50672;53.362;-6.240;2022-08-23T13:11:31;101087.78;;;33.37;29.09
64336;BME280;50672;53.362;-6.240;2022-08-23T13:14:53;101079.78;;;32.35;29.20
64336;BME280;50672;53.362;-6.240;2022-08-23T13:17:13;101084.59;;;31.46;29.79
64336;BME280;50672;53.362;-6.240;2022-08-23T13:19:41;101071.41;;;32.02;29.86
64336;BME280;50672;53.362;-6.240;2022-08-23T13:25:03;101092.34;;;31.02;30.32
64336;BME280;50672;53.362;-6.240;2022-08-23T13:27:54;101094.03;;;31.97;30.06
64336;BME280;50672;53.362;-6.240;2022-08-23T13:30:31;101092.19;;;33.07;29.68
64336;BME280;50672;53.362;-6.240;2022-08-23T13:35:40;101100.47;;;35.04;27.96
64336;BME280;50672;53.362;-6.240;2022-08-23T13:41:00;101102.09;;;34.70;27.55
64336;BME280;50672;53.362;-6.240;2022-08-23T13:43:33;101097.09;;;34.50;27.10
64336;BME280;50672;53.362;-6.240;2022-08-23T13:46:28;101089.47;;;32.79;27.44
64336;BME280;50672;53.362;-6.240;2022-08-23T13:49:21;101098.53;;;32.40;27.78
64336;BME280;50672;53.362;-6.240;2022-08-23T13:52:11;101088.09;;;31.38;28.14
64336;BME280;50672;53.362;-6.240;2022-08-23T13:54:58;101099.22;;;31.29;28.72
64336;BME280;50672;53.362;-6.240;2022-08-23T13:57:25;101097.06;;;32.42;28.69
64336;BME280;50672;53.362;-6.240;2022-08-23T13:59:56;101088.13;;;33.67;28.45
64336;BME280;50672;53.362;-6.240;2022-08-23T14:02:24;101098.63;;;35.08;27.80
64336;BME280;50672;53.362;-6.240;2022-08-23T14:04:51;101094.44;;;35.97;26.89
64336;BME280;50672;53.362;-6.240;2022-08-23T14:07:18;101089.16;;;36.17;27.08
64336;BME280;50672;53.362;-6.240;2022-08-23T14:09:45;101085.09;;;34.35;27.38
64336;BME280;50672;53.362;-6.240;2022-08-23T14:12:18;101091.47;;;35.11;27.77
64336;BME280;50672;53.362;-6.240;2022-08-23T14:14:47;101090.59;;;36.32;27.04
64336;BME280;50672;53.362;-6.240;2022-08-23T14:17:15;101084.97;;;35.28;26.98
64336;BME280;50672;53.362;-6.240;2022-08-23T14:19:45;101089.63;;;35.06;27.44
64336;BME280;50672;53.362;-6.240;2022-08-23T14:22:33;101084.22;;;34.26;28.09
64336;BME280;50672;53.362;-6.240;2022-08-23T14:25:01;101078.94;;;33.84;28.57
64336;BME280;50672;53.362;-6.240;2022-08-23T14:27:27;101081.50;;;32.73;29.39
64336;BME280;50672;53.362;-6.240;2022-08-23T14:29:54;101074.94;;;31.66;30.01
64336;BME280;50672;53.362;-6.240;2022-08-23T14:32:21;101071.06;;;30.77;31.04
64336;BME280;50672;53.362;-6.240;2022-08-23T14:34:48;101071.63;;;30.36;31.95
64336;BME280;50672;53.362;-6.240;2022-08-23T14:37:15;101073.38;;;30.31;32.96
64336;BME280;50672;53.362;-6.240;2022-08-23T14:40:03;101077.13;;;30.46;33.61
64336;BME280;50672;53.362;-6.240;2022-08-23T14:42:30;101073.44;;;31.55;33.12
64336;BME280;50672;53.362;-6.240;2022-08-23T14:44:57;101065.47;;;31.76;33.16
64336;BME280;50672;53.362;-6.240;2022-08-23T14:47:24;101081.66;;;32.26;33.58
64336;BME280;50672;53.362;-6.240;2022-08-23T14:49:52;101087.25;;;32.12;33.74